createdAt,value
2023-04-15T00:00:35.687Z,13.3615
2023-04-15T00:01:36.756Z,13.1538
2023-04-15T00:02:37.890Z,13.1385
2023-04-15T00:03:39.123Z,12.9308
2023-04-15T00:04:39.857Z,13.0000
2023-04-15T00:05:40.935Z,12.9615
2023-04-15T00:06:41.934Z,13.5615
2023-04-15T00:07:43.720Z,12.6308
2023-04-15T00:08:43.875Z,14.3846
2023-04-15T00:09:44.952Z,13.6154
2023-04-15T00:10:46.017Z,12.6538
2023-04-15T00:11:47.029Z,12.3846
2023-04-15T00:12:48.059Z,13.4538
2023-04-15T00:13:49.104Z,13.4154
2023-04-15T00:14:50.185Z,13.7769
2023-04-15T00:15:51.240Z,13.6538
2023-04-15T00:16:52.340Z,13.7462
2023-04-15T00:17:53.286Z,13.0462
2023-04-15T00:18:54.343Z,13.4462
2023-04-15T00:19:55.358Z,13.6538
2023-04-15T00:20:56.464Z,12.4077
2023-04-15T00:21:57.453Z,12.6154
2023-04-15T00:22:58.506Z,13.2846
2023-04-15T00:23:59.533Z,13.5769
2023-04-15T00:25:00.577Z,14.2923
2023-04-15T00:26:01.667Z,12.2846
2023-04-15T00:27:02.698Z,13.3385
2023-04-15T00:28:03.700Z,13.5231
2023-04-15T00:29:04.749Z,13.7385
2023-04-15T00:30:05.783Z,13.9000
2023-04-15T00:31:06.884Z,13.9385
2023-04-15T00:32:07.900Z,12.9462
2023-04-15T00:33:08.923Z,13.3308
2023-04-15T00:34:09.988Z,13.1462
2023-04-15T00:35:11.048Z,12.7692
2023-04-15T00:36:12.071Z,13.2615
2023-04-15T00:37:13.081Z,13.4615
2023-04-15T00:38:14.157Z,13.2923
2023-04-15T00:39:15.239Z,13.5538
2023-04-15T00:40:16.230Z,13.3308
2023-04-15T00:41:17.326Z,13.3308
2023-04-15T00:42:18.364Z,13.5077
2023-04-15T00:43:19.365Z,13.1385
2023-04-15T00:44:20.399Z,12.7231
2023-04-15T00:45:21.434Z,13.3385
2023-04-15T00:46:22.542Z,13.8154
2023-04-15T00:47:23.621Z,13.4846
2023-04-15T00:48:24.568Z,13.2154
2023-04-15T00:49:25.624Z,12.8846
2023-04-15T00:50:26.693Z,13.4846
2023-04-15T00:51:27.708Z,13.4538
2023-04-15T00:52:28.825Z,13.2846
2023-04-15T00:53:29.834Z,12.7231
2023-04-15T00:54:30.843Z,13.8154
2023-04-15T00:55:31.925Z,13.0769
2023-04-15T00:56:32.987Z,13.7846
2023-04-15T00:57:34.111Z,13.1462
2023-04-15T00:58:35.143Z,13.6462
2023-04-15T00:59:36.195Z,13.2462
2023-04-15T01:00:37.230Z,12.9000
2023-04-15T01:01:38.322Z,12.8308
2023-04-15T01:02:39.598Z,13.2231
2023-04-15T01:03:40.467Z,13.3154
2023-04-15T01:04:41.393Z,12.8846
2023-04-15T01:05:42.442Z,12.6846
2023-04-15T01:06:43.534Z,12.6538
2023-04-15T01:07:44.596Z,13.0538
2023-04-15T01:08:45.626Z,11.9231
2023-04-15T01:09:46.594Z,12.9077
2023-04-15T01:10:47.666Z,12.7077
2023-04-15T01:11:48.724Z,12.0769
2023-04-15T01:12:49.733Z,12.3077
2023-04-15T01:13:50.828Z,12.5462
2023-04-15T01:14:51.833Z,12.1615
2023-04-15T01:15:52.845Z,12.0000
2023-04-15T01:16:53.860Z,11.4923
2023-04-15T01:17:55.029Z,12.7385
2023-04-15T01:18:55.947Z,12.1538
2023-04-15T01:19:57.015Z,11.8538
2023-04-15T01:20:58.031Z,12.6077
2023-04-15T01:21:59.072Z,12.4308
2023-04-15T01:23:00.263Z,12.7692
2023-04-15T01:24:01.170Z,12.5692
2023-04-15T01:25:02.202Z,12.4385
2023-04-15T01:26:03.272Z,12.1923
2023-04-15T01:27:04.278Z,12.4308
2023-04-15T01:28:05.383Z,11.7538
2023-04-15T01:29:06.344Z,11.9615
2023-04-15T01:30:07.453Z,12.0462
2023-04-15T01:31:08.518Z,12.1462
2023-04-15T01:32:09.472Z,12.5538
2023-04-15T01:33:10.531Z,12.0538
2023-04-15T01:34:11.555Z,12.3462
2023-04-15T01:35:12.608Z,12.3231
2023-04-15T01:36:13.613Z,12.1462
2023-04-15T01:37:14.650Z,12.1462
2023-04-15T01:38:15.730Z,12.5846
2023-04-15T01:39:16.829Z,12.1000
2023-04-15T01:40:17.778Z,12.4000
2023-04-15T01:41:18.833Z,12.6308
2023-04-15T01:42:19.850Z,12.1308
2023-04-15T01:43:20.926Z,12.1846
2023-04-15T01:44:21.932Z,12.5231
2023-04-15T01:45:22.951Z,12.3462
2023-04-15T01:46:24.021Z,12.0000
2023-04-15T01:47:25.072Z,12.0308
2023-04-15T01:48:26.145Z,11.8154
2023-04-15T01:49:27.127Z,11.6846
2023-04-15T01:50:28.090Z,12.4462
2023-04-15T01:51:29.144Z,11.5615
2023-04-15T01:52:30.171Z,11.8692
2023-04-15T01:53:31.226Z,12.3846
2023-04-15T01:54:32.262Z,12.0615
2023-04-15T01:55:33.318Z,10.8308
2023-04-15T01:56:34.351Z,10.8846
2023-04-15T01:57:35.372Z,11.5846
2023-04-15T01:58:36.472Z,11.4769
2023-04-15T01:59:37.473Z,11.7538
2023-04-15T02:00:38.539Z,11.6692
2023-04-15T02:01:39.573Z,12.2385
2023-04-15T02:02:40.746Z,11.1154
2023-04-15T02:03:41.781Z,11.7462
2023-04-15T02:04:42.685Z,11.4308
2023-04-15T02:05:43.702Z,12.5923
2023-04-15T02:06:44.731Z,11.4769
2023-04-15T02:07:45.769Z,12.2077
2023-04-15T02:08:46.869Z,11.7692
2023-04-15T02:09:47.876Z,11.3462
2023-04-15T02:10:48.915Z,11.1462
2023-04-15T02:11:49.977Z,11.7308
2023-04-15T02:12:51.014Z,12.1308
2023-04-15T02:13:52.096Z,12.0462
2023-04-15T02:14:53.102Z,11.7769
2023-04-15T02:15:54.140Z,11.6692
2023-04-15T02:16:55.242Z,12.2538
2023-04-15T02:17:56.228Z,12.0692
2023-04-15T02:18:57.283Z,12.1923
2023-04-15T02:19:58.280Z,11.6769
2023-04-15T02:20:59.393Z,11.2000
2023-04-15T02:22:00.372Z,11.5615
2023-04-15T02:23:01.424Z,11.7000
2023-04-15T02:24:02.500Z,12.1538
2023-04-15T02:25:03.531Z,11.5385
2023-04-15T02:26:04.539Z,11.4462
2023-04-15T02:27:05.556Z,12.0846
2023-04-15T02:28:06.622Z,11.3154
2023-04-15T02:29:07.661Z,11.9923
2023-04-15T02:30:08.683Z,11.6000
2023-04-15T02:31:09.775Z,12.1615
2023-04-15T02:32:10.914Z,11.9000
2023-04-15T02:33:11.838Z,11.8000
2023-04-15T02:34:12.898Z,11.4308
2023-04-15T02:35:13.996Z,12.1077
2023-04-15T02:36:14.961Z,12.4923
2023-04-15T02:37:16.017Z,11.9154
2023-04-15T02:38:17.089Z,11.4462
2023-04-15T02:39:18.085Z,12.0308
2023-04-15T02:40:19.239Z,11.4769
2023-04-15T02:41:20.321Z,11.0846
2023-04-15T02:42:21.314Z,11.8923
2023-04-15T02:43:22.356Z,11.0077
2023-04-15T02:44:23.378Z,10.8385
2023-04-15T02:45:24.505Z,11.0000
2023-04-15T02:46:25.588Z,10.6385
2023-04-15T02:47:26.593Z,10.7538
2023-04-15T02:48:27.557Z,10.9308
2023-04-15T02:49:28.752Z,11.6308
2023-04-15T02:50:30.071Z,10.8846
2023-04-15T02:51:30.870Z,11.2615
2023-04-15T02:52:31.754Z,11.1846
2023-04-15T02:53:32.831Z,11.3769
2023-04-15T02:54:33.840Z,11.4923
2023-04-15T02:55:34.916Z,10.9462
2023-04-15T02:56:35.912Z,11.5846
2023-04-15T02:57:36.989Z,11.2462
2023-04-15T02:58:37.995Z,10.5923
2023-04-15T02:59:39.037Z,11.2462
2023-04-15T03:00:40.151Z,10.6846
2023-04-15T03:01:41.088Z,10.4231
2023-04-15T03:02:42.461Z,10.9308
2023-04-15T03:03:43.380Z,11.0385
2023-04-15T03:04:44.350Z,10.5462
2023-04-15T03:05:45.410Z,11.1462
2023-04-15T03:06:46.369Z,10.6692
2023-04-15T03:07:47.424Z,12.0538
2023-04-15T03:08:48.549Z,10.9308
2023-04-15T03:09:49.515Z,10.7385
2023-04-15T03:10:50.572Z,10.0385
2023-04-15T03:11:51.573Z,10.8692
2023-04-15T03:12:52.619Z,10.6538
2023-04-15T03:13:53.689Z,10.3308
2023-04-15T03:14:54.718Z,10.6231
2023-04-15T03:15:55.887Z,10.9077
2023-04-15T03:16:56.830Z,10.7308
2023-04-15T03:17:57.930Z,10.6769
2023-04-15T03:18:59.020Z,10.3769
2023-04-15T03:19:59.964Z,10.9692
2023-04-15T03:21:01.027Z,10.9385
2023-04-15T03:22:02.016Z,10.8538
2023-04-15T03:23:03.058Z,11.0692
2023-04-15T03:24:04.200Z,11.2615
2023-04-15T03:25:05.145Z,10.9000
2023-04-15T03:26:06.238Z,11.1538
2023-04-15T03:27:07.294Z,10.7846
2023-04-15T03:28:08.276Z,10.2692
2023-04-15T03:29:09.318Z,11.2923
2023-04-15T03:30:10.334Z,10.6462
2023-04-15T03:31:11.458Z,10.9846
2023-04-15T03:32:12.508Z,10.9000
2023-04-15T03:33:13.400Z,10.4462
2023-04-15T03:34:14.441Z,11.1538
2023-04-15T03:35:15.491Z,10.6000
2023-04-15T03:36:16.569Z,10.4538
2023-04-15T03:37:17.574Z,11.2923
2023-04-15T03:38:18.597Z,10.7462
2023-04-15T03:39:19.651Z,10.5923
2023-04-15T03:40:20.685Z,11.0308
2023-04-15T03:41:21.756Z,11.7615
2023-04-15T03:42:22.766Z,10.8308
2023-04-15T03:43:23.778Z,11.0385
2023-04-15T03:44:24.854Z,10.0385
2023-04-15T03:45:25.855Z,11.6462
2023-04-15T03:46:26.962Z,10.2385
2023-04-15T03:47:27.971Z,10.6923
2023-04-15T03:48:29.005Z,10.7615
2023-04-15T03:49:30.025Z,11.4538
2023-04-15T03:50:31.054Z,11.4846
2023-04-15T03:51:32.126Z,10.9462
2023-04-15T03:52:33.151Z,10.9538
2023-04-15T03:53:34.187Z,10.7231
2023-04-15T03:54:35.238Z,10.4846
2023-04-15T03:55:36.297Z,10.4000
2023-04-15T03:56:37.379Z,10.5538
2023-04-15T03:57:38.390Z,10.1385
2023-04-15T03:58:39.433Z,10.6692
2023-04-15T03:59:40.476Z,11.1462
2023-04-15T04:00:41.575Z,10.5000
2023-04-15T04:01:42.688Z,11.2000
2023-04-15T04:02:43.726Z,11.0538
2023-04-15T04:03:44.813Z,10.6846
2023-04-15T04:04:45.714Z,10.7923
2023-04-15T04:05:46.754Z,10.8846
2023-04-15T04:06:47.828Z,10.6923
2023-04-15T04:07:48.821Z,10.5231
2023-04-15T04:08:49.873Z,10.5462
2023-04-15T04:09:50.934Z,10.3769
2023-04-15T04:10:51.953Z,10.6000
2023-04-15T04:11:53.033Z,10.5615
2023-04-15T04:12:54.039Z,10.8308
2023-04-15T04:13:55.133Z,10.8846
2023-04-15T04:14:56.170Z,10.7538
2023-04-15T04:15:57.334Z,11.6231
2023-04-15T04:16:58.335Z,11.0308
2023-04-15T04:17:59.326Z,11.1308
2023-04-15T04:19:00.612Z,10.9846
2023-04-15T04:20:01.381Z,11.5308
2023-04-15T04:21:02.390Z,10.5923
2023-04-15T04:22:03.516Z,11.0000
2023-04-15T04:23:04.467Z,10.7077
2023-04-15T04:24:05.672Z,11.2462
2023-04-15T04:25:06.705Z,10.4769
2023-04-15T04:26:07.772Z,9.9538
2023-04-15T04:27:08.829Z,11.2077
2023-04-15T04:28:09.837Z,10.7538
2023-04-15T04:29:10.869Z,11.2308
2023-04-15T04:30:11.933Z,10.8692
2023-04-15T04:31:13.054Z,11.0000
2023-04-15T04:32:14.123Z,10.7308
2023-04-15T04:33:15.075Z,10.9385
2023-04-15T04:34:16.074Z,10.4769
2023-04-15T04:35:17.153Z,10.5538
2023-04-15T04:36:18.375Z,10.4692
2023-04-15T04:37:19.301Z,10.7077
2023-04-15T04:38:20.281Z,11.0000
2023-04-15T04:39:21.389Z,10.7308
2023-04-15T04:40:22.371Z,10.3000
2023-04-15T04:41:23.374Z,10.2154
2023-04-15T04:42:24.545Z,10.2000
2023-04-15T04:43:25.487Z,10.5538
2023-04-15T04:44:26.649Z,10.4538
2023-04-15T04:45:27.557Z,10.3308
2023-04-15T04:46:28.634Z,10.5692
2023-04-15T04:47:29.782Z,10.0923
2023-04-15T04:48:30.705Z,10.8692
2023-04-15T04:49:31.722Z,10.9385
2023-04-15T04:50:32.771Z,10.2000
2023-04-15T04:51:33.828Z,10.6308
2023-04-15T04:52:34.975Z,9.8462
2023-04-15T04:53:35.931Z,10.6154
2023-04-15T04:54:36.972Z,10.0077
2023-04-15T04:55:38.028Z,10.5846
2023-04-15T04:56:39.070Z,10.9077
2023-04-15T04:57:40.168Z,10.3538
2023-04-15T04:58:41.108Z,10.7231
2023-04-15T04:59:42.209Z,10.5462
2023-04-15T05:00:43.199Z,11.8231
2023-04-15T05:01:44.474Z,10.6154
2023-04-15T05:02:45.515Z,9.7077
2023-04-15T05:03:46.422Z,10.0615
2023-04-15T05:04:47.365Z,10.2615
2023-04-15T05:05:48.508Z,10.6769
2023-04-15T05:06:49.533Z,10.3692
2023-04-15T05:07:50.547Z,10.9538
2023-04-15T05:08:51.537Z,10.4538
2023-04-15T05:09:52.663Z,10.2077
2023-04-15T05:10:53.616Z,10.2692
2023-04-15T05:11:54.723Z,10.4231
2023-04-15T05:12:55.805Z,10.5769
2023-04-15T05:13:56.794Z,9.8000
2023-04-15T05:14:57.829Z,9.8692
2023-04-15T05:15:58.924Z,10.2308
2023-04-15T05:17:00.454Z,10.6615
2023-04-15T05:18:00.934Z,10.0000
2023-04-15T05:19:02.179Z,9.7000
2023-04-15T05:20:02.967Z,10.2462
2023-04-15T05:21:04.035Z,9.9846
2023-04-15T05:22:05.059Z,9.7846
2023-04-15T05:23:06.159Z,9.9000
2023-04-15T05:24:07.137Z,10.0385
2023-04-15T05:25:08.190Z,10.4231
2023-04-15T05:26:09.240Z,10.0231
2023-04-15T05:27:10.261Z,10.0154
2023-04-15T05:28:11.372Z,9.9846
2023-04-15T05:29:12.349Z,9.5769
2023-04-15T05:30:13.842Z,9.5923
2023-04-15T05:31:14.513Z,9.6615
2023-04-15T05:32:15.491Z,9.3923
2023-04-15T05:33:16.603Z,9.5923
2023-04-15T05:34:17.562Z,9.6000
2023-04-15T05:35:18.640Z,9.8000
2023-04-15T05:36:19.659Z,9.2538
2023-04-15T05:37:20.700Z,9.9846
2023-04-15T05:38:21.774Z,9.8692
2023-04-15T05:39:22.775Z,9.6154
2023-04-15T05:40:23.840Z,9.8538
2023-04-15T05:41:24.878Z,10.8923
2023-04-15T05:42:25.916Z,10.4769
2023-04-15T05:43:26.993Z,9.4308
2023-04-15T05:44:28.054Z,9.3692
2023-04-15T05:45:29.059Z,9.6769
2023-04-15T05:46:30.144Z,9.5769
2023-04-15T05:47:31.147Z,10.0077
2023-04-15T05:48:32.192Z,9.1462
2023-04-15T05:49:33.185Z,9.2385
2023-04-15T05:50:34.260Z,9.8077
2023-04-15T05:51:35.297Z,10.2385
2023-04-15T05:52:36.323Z,10.0538
2023-04-15T05:53:37.452Z,9.8692
2023-04-15T05:54:38.971Z,10.8923
2023-04-15T05:55:39.478Z,9.9769
2023-04-15T05:56:40.492Z,9.5615
2023-04-15T05:57:41.574Z,9.2923
2023-04-15T05:58:42.617Z,9.8385
2023-04-15T05:59:43.614Z,9.4077
2023-04-15T06:00:44.678Z,9.7308
2023-04-15T06:01:45.710Z,9.1154
2023-04-15T06:02:46.961Z,8.8538
2023-04-15T06:03:47.938Z,9.7000
2023-04-15T06:04:48.846Z,9.3077
2023-04-15T06:05:49.894Z,9.1462
2023-04-15T06:06:50.918Z,9.3462
2023-04-15T06:07:52.017Z,9.2231
2023-04-15T06:08:53.112Z,9.5846
2023-04-15T06:09:54.129Z,8.7923
2023-04-15T06:10:55.198Z,9.4846
2023-04-15T06:11:56.220Z,9.7385
2023-04-15T06:12:57.192Z,8.5000
2023-04-15T06:13:58.352Z,9.4462
2023-04-15T06:15:00.235Z,9.3769
2023-04-15T06:16:00.429Z,9.3462
2023-04-15T06:17:01.436Z,9.8077
2023-04-15T06:18:02.540Z,8.1308
2023-04-15T06:19:03.510Z,7.7385
2023-04-15T06:20:04.468Z,7.9769
2023-04-15T06:21:05.509Z,6.9615
2023-04-15T06:22:06.560Z,6.3462
2023-04-15T06:23:07.554Z,6.3385
2023-04-15T06:24:08.704Z,6.3077
2023-04-15T06:25:09.626Z,5.1692
2023-04-15T06:26:10.747Z,5.1077
2023-04-15T06:27:11.723Z,4.3538
2023-04-15T06:28:12.752Z,3.5692
2023-04-15T06:29:13.850Z,2.8769
2023-04-15T06:30:14.827Z,2.7308
2023-04-15T06:31:15.863Z,2.0462
2023-04-15T06:32:16.949Z,1.6000
2023-04-15T06:33:17.989Z,1.3615
2023-04-15T06:34:19.014Z,1.2846
2023-04-15T06:35:20.054Z,1.2615
2023-04-15T06:36:21.076Z,1.1769
2023-04-15T06:37:22.131Z,1.1231
2023-04-15T06:38:23.151Z,1.2615
2023-04-15T06:39:24.267Z,1.2615
2023-04-15T06:40:25.303Z,1.3077
2023-04-15T06:41:26.269Z,1.1769
2023-04-15T06:42:27.307Z,1.2846
2023-04-15T06:43:28.333Z,1.1308
2023-04-15T06:44:29.403Z,1.1308
2023-04-15T06:45:30.511Z,1.2846
2023-04-15T06:46:31.471Z,1.1769
2023-04-15T06:47:32.516Z,1.1692
2023-04-15T06:48:33.510Z,1.2154
2023-04-15T06:49:34.628Z,1.2769
2023-04-15T06:50:35.662Z,1.3846
2023-04-15T06:51:36.664Z,1.3846
2023-04-15T06:52:37.706Z,1.3308
2023-04-15T06:53:38.715Z,1.1769
2023-04-15T06:54:39.818Z,1.3923
2023-04-15T06:55:40.830Z,1.3231
2023-04-15T06:56:41.813Z,1.4077
2023-04-15T06:57:42.875Z,1.2846
2023-04-15T06:58:43.947Z,1.3615
2023-04-15T06:59:44.902Z,1.4846
2023-04-15T07:00:45.957Z,1.3462
2023-04-15T07:01:46.956Z,1.3615
2023-04-15T07:02:48.056Z,1.4077
2023-04-15T07:03:49.128Z,1.4846
2023-04-15T07:04:50.149Z,1.4462
2023-04-15T07:05:51.135Z,1.5538
2023-04-15T07:06:52.223Z,1.6462
2023-04-15T07:07:53.253Z,1.5308
2023-04-15T07:08:54.288Z,1.5077
2023-04-15T07:09:55.343Z,1.4615
2023-04-15T07:10:56.359Z,1.4538
2023-04-15T07:11:57.397Z,1.5385
2023-04-15T07:12:58.401Z,1.5692
2023-04-15T07:13:59.475Z,1.3154
2023-04-15T07:15:00.516Z,1.7231
2023-04-15T07:16:01.650Z,1.5462
2023-04-15T07:17:02.608Z,1.4462
2023-04-15T07:18:03.621Z,1.6231
2023-04-15T07:19:04.817Z,1.6769
2023-04-15T07:20:05.684Z,1.8000
2023-04-15T07:21:06.710Z,1.6846
2023-04-15T07:22:07.777Z,1.6308
2023-04-15T07:23:08.982Z,1.6462
2023-04-15T07:24:09.799Z,1.6000
2023-04-15T07:25:11.183Z,1.9308
2023-04-15T07:26:11.933Z,1.8615
2023-04-15T07:27:12.944Z,1.7923
2023-04-15T07:28:13.973Z,1.7462
2023-04-15T07:29:15.020Z,1.7769
2023-04-15T07:30:16.062Z,1.8231
2023-04-15T07:31:17.184Z,1.5462
2023-04-15T07:32:18.128Z,1.5385
2023-04-15T07:33:19.171Z,1.8846
2023-04-15T07:34:20.399Z,1.8923
2023-04-15T07:35:21.233Z,1.9538
2023-04-15T07:36:22.323Z,1.9462
2023-04-15T07:37:23.332Z,2.1231
2023-04-15T07:38:24.375Z,2.0154
2023-04-15T07:39:25.411Z,2.0154
2023-04-15T07:40:26.493Z,1.8846
2023-04-15T07:41:27.572Z,1.9000
2023-04-15T07:42:28.537Z,2.0308
2023-04-15T07:43:29.595Z,1.9231
2023-04-15T07:44:30.619Z,2.0615
2023-04-15T07:45:31.680Z,2.0846
2023-04-15T07:46:32.774Z,1.9923
2023-04-15T07:47:33.787Z,2.0308
2023-04-15T07:48:35.610Z,1.8462
2023-04-15T07:49:35.916Z,2.2077
2023-04-15T07:50:36.991Z,1.9231
2023-04-15T07:51:38.069Z,1.9077
2023-04-15T07:52:39.057Z,2.0385
2023-04-15T07:53:40.118Z,1.9692
2023-04-15T07:54:41.138Z,1.9846
2023-04-15T07:55:42.184Z,2.0231
2023-04-15T07:56:43.280Z,1.8308
2023-04-15T07:57:44.214Z,1.9769
2023-04-15T07:58:45.260Z,1.9077
2023-04-15T07:59:46.299Z,1.8923
2023-04-15T08:00:47.392Z,1.8308
2023-04-15T08:01:48.477Z,1.9308
2023-04-15T08:02:49.553Z,2.0000
2023-04-15T08:03:50.671Z,2.1154
2023-04-15T08:04:51.704Z,2.0923
2023-04-15T08:05:52.619Z,2.0538
2023-04-15T08:06:53.636Z,2.0385
2023-04-15T08:07:54.641Z,2.0077
2023-04-15T08:08:55.747Z,2.1538
2023-04-15T08:09:56.680Z,2.1154
2023-04-15T08:10:57.766Z,2.0385
2023-04-15T08:11:58.837Z,2.0538
2023-04-15T08:12:59.899Z,2.0000
2023-04-15T08:14:00.835Z,1.9462
2023-04-15T08:15:01.924Z,1.8769
2023-04-15T08:16:03.005Z,1.9385
2023-04-15T08:17:04.038Z,2.1923
2023-04-15T08:18:05.020Z,2.1385
2023-04-15T08:19:06.046Z,2.1846
2023-04-15T08:20:07.082Z,2.2769
2023-04-15T08:21:08.159Z,2.1462
2023-04-15T08:22:15.371Z,2.0154
2023-04-15T08:23:10.166Z,2.0846
2023-04-15T08:24:11.261Z,2.0308
2023-04-15T08:25:12.246Z,2.0154
2023-04-15T08:26:13.388Z,2.0077
2023-04-15T08:27:14.433Z,2.0077
2023-04-15T08:28:15.410Z,2.1615
2023-04-15T08:29:16.437Z,2.2692
2023-04-15T08:30:17.479Z,2.1615
2023-04-15T08:31:18.557Z,2.1231
2023-04-15T08:32:19.636Z,2.1308
2023-04-15T08:33:20.593Z,2.0154
2023-04-15T08:34:21.626Z,2.0923
2023-04-15T08:35:22.806Z,1.9538
2023-04-15T08:36:23.736Z,1.9769
2023-04-15T08:37:24.668Z,1.9462
2023-04-15T08:38:25.710Z,1.9846
2023-04-15T08:39:26.732Z,1.9615
2023-04-15T08:40:27.795Z,2.0692
2023-04-15T08:41:28.814Z,1.8231
2023-04-15T08:42:29.915Z,1.9231
2023-04-15T08:43:30.892Z,1.9615
2023-04-15T08:44:31.972Z,1.9923
2023-04-15T08:45:32.998Z,1.8923
2023-04-15T08:46:34.032Z,1.8923
2023-04-15T08:47:35.073Z,1.8077
2023-04-15T08:48:36.057Z,1.7846
2023-04-15T08:49:37.100Z,1.8308
2023-04-15T08:50:38.142Z,1.9077
2023-04-15T08:51:39.187Z,1.8615
2023-04-15T08:52:40.261Z,1.8615
2023-04-15T08:53:41.266Z,1.8462
2023-04-15T08:54:42.308Z,1.8000
2023-04-15T08:55:43.309Z,1.7692
2023-04-15T08:56:44.414Z,1.7231
2023-04-15T08:57:45.450Z,1.7462
2023-04-15T08:58:46.465Z,1.7923
2023-04-15T08:59:47.528Z,1.5846
2023-04-15T09:00:48.650Z,1.9462
2023-04-15T09:01:49.628Z,2.1000
2023-04-15T09:02:50.730Z,2.1308
2023-04-15T09:03:51.777Z,2.2538
2023-04-15T09:04:52.921Z,2.3385
2023-04-15T09:05:53.762Z,2.2923
2023-04-15T09:06:54.782Z,2.4231
2023-04-15T09:07:55.935Z,2.3462
2023-04-15T09:08:56.861Z,2.3000
2023-04-15T09:09:57.923Z,2.4154
2023-04-15T09:10:58.990Z,2.6615
2023-04-15T09:11:59.998Z,2.8231
2023-04-15T09:13:01.089Z,2.2538
2023-04-15T09:14:02.080Z,2.5538
2023-04-15T09:15:03.141Z,2.5692
2023-04-15T09:16:04.232Z,2.5846
2023-04-15T09:17:05.295Z,2.6154
2023-04-15T09:18:06.264Z,2.5769
2023-04-15T09:19:07.265Z,2.3231
2023-04-15T09:20:08.300Z,2.4308
2023-04-15T09:21:09.638Z,2.5615
2023-04-15T09:22:10.357Z,2.4231
2023-04-15T09:23:11.484Z,2.4923
2023-04-15T09:24:12.433Z,2.5154
2023-04-15T09:25:13.514Z,2.6231
2023-04-15T09:26:14.510Z,2.4000
2023-04-15T09:27:15.544Z,2.5231
2023-04-15T09:28:16.619Z,2.4615
2023-04-15T09:29:17.622Z,2.5769
2023-04-15T09:30:18.685Z,2.4308
2023-04-15T09:31:19.747Z,2.6308
2023-04-15T09:32:20.712Z,2.3385
2023-04-15T09:33:21.906Z,2.5462
2023-04-15T09:34:22.956Z,2.2462
2023-04-15T09:35:23.929Z,2.2385
2023-04-15T09:36:24.986Z,2.2923
2023-04-15T09:37:32.395Z,2.1154
2023-04-15T09:38:27.117Z,2.1385
2023-04-15T09:39:28.113Z,1.9615
2023-04-15T09:40:29.152Z,2.0769
2023-04-15T09:41:30.199Z,2.1154
2023-04-15T09:42:31.238Z,2.1846
2023-04-15T09:43:32.292Z,2.0385
2023-04-15T09:44:33.314Z,2.0000
2023-04-15T09:45:34.337Z,2.0538
2023-04-15T09:46:35.433Z,1.9077
2023-04-15T09:47:36.492Z,2.0462
2023-04-15T09:48:37.602Z,2.1000
2023-04-15T09:49:38.578Z,2.2000
2023-04-15T09:50:39.562Z,2.2231
2023-04-15T09:51:41.340Z,1.9923
2023-04-15T09:52:41.634Z,1.9385
2023-04-15T09:53:42.710Z,2.0538
2023-04-15T09:54:43.695Z,1.9385
2023-04-15T09:55:44.745Z,2.1615
2023-04-15T09:56:45.806Z,2.1000
2023-04-15T09:57:46.828Z,1.7077
2023-04-15T09:58:47.912Z,1.4538
2023-04-15T09:59:48.873Z,1.3615
2023-04-15T10:00:49.973Z,1.3385
2023-04-15T10:01:51.075Z,1.3000
2023-04-15T10:02:52.056Z,1.4154
2023-04-15T10:03:53.115Z,1.3538
2023-04-15T10:04:54.110Z,1.7077
2023-04-15T10:05:55.163Z,1.8385
2023-04-15T10:06:56.158Z,1.8615
2023-04-15T10:07:57.247Z,2.0769
2023-04-15T10:08:58.253Z,1.9769
2023-04-15T10:09:59.271Z,2.1462
2023-04-15T10:11:00.277Z,2.1231
2023-04-15T10:12:01.324Z,2.0923
2023-04-15T10:13:02.356Z,2.1308
2023-04-15T10:14:03.745Z,1.8462
2023-04-15T10:15:04.423Z,1.7231
2023-04-15T10:16:05.483Z,1.6462
2023-04-15T10:17:06.478Z,1.8231
2023-04-15T10:18:07.766Z,1.7769
2023-04-15T10:19:08.523Z,1.7385
2023-04-15T10:20:09.516Z,1.8077
2023-04-15T10:21:10.543Z,2.0077
2023-04-15T10:22:11.616Z,1.7615
2023-04-15T10:23:13.462Z,1.7385
2023-04-15T10:24:13.696Z,2.0615
2023-04-15T10:25:14.702Z,1.9077
2023-04-15T10:26:15.734Z,1.9231
2023-04-15T10:27:16.788Z,1.9077
2023-04-15T10:28:17.810Z,1.9231
2023-04-15T10:29:18.882Z,2.0000
2023-04-15T10:30:19.899Z,1.9000
2023-04-15T10:31:20.971Z,1.8231
2023-04-15T10:32:21.991Z,1.9308
2023-04-15T10:33:23.006Z,1.8769
2023-04-15T10:34:24.061Z,2.0538
2023-04-15T10:35:25.095Z,2.0308
2023-04-15T10:36:26.108Z,1.9077
2023-04-15T10:37:27.188Z,1.7538
2023-04-15T10:38:28.206Z,1.9385
2023-04-15T10:39:29.279Z,1.7615
2023-04-15T10:40:30.302Z,1.7615
2023-04-15T10:41:31.387Z,1.6923
2023-04-15T10:42:32.385Z,1.6154
2023-04-15T10:43:33.379Z,1.7462
2023-04-15T10:44:34.471Z,1.7308
2023-04-15T10:45:35.505Z,1.7000
2023-04-15T10:46:36.564Z,1.8615
2023-04-15T10:47:37.597Z,1.8231
2023-04-15T10:48:38.610Z,1.8077
2023-04-15T10:49:39.626Z,1.8231
2023-04-15T10:50:40.732Z,1.9923
2023-04-15T10:51:41.756Z,1.9846
2023-04-15T10:52:42.738Z,2.1385
2023-04-15T10:53:43.801Z,2.2692
2023-04-15T10:54:44.806Z,2.2846
2023-04-15T10:55:45.867Z,2.5000
2023-04-15T10:56:46.899Z,2.3692
2023-04-15T10:57:47.934Z,2.4000
2023-04-15T10:58:48.998Z,2.2462
2023-04-15T10:59:50.029Z,2.3769
2023-04-15T11:00:51.068Z,2.6154
2023-04-15T11:01:52.194Z,2.3538
2023-04-15T11:02:53.161Z,2.2462
2023-04-15T11:03:54.325Z,2.1462
2023-04-15T11:04:55.560Z,2.3692
2023-04-15T11:05:56.316Z,2.2462
2023-04-15T11:06:57.303Z,2.2615
2023-04-15T11:07:58.364Z,2.2538
2023-04-15T11:08:59.463Z,2.3308
2023-04-15T11:10:00.434Z,2.2077
2023-04-15T11:11:01.512Z,2.2077
2023-04-15T11:12:02.503Z,2.1231
2023-04-15T11:13:03.552Z,2.2538
2023-04-15T11:14:04.733Z,2.2462
2023-04-15T11:15:05.605Z,2.2385
2023-04-15T11:16:06.748Z,2.3077
2023-04-15T11:17:07.760Z,2.2615
2023-04-15T11:18:08.907Z,2.0692
2023-04-15T11:19:09.883Z,2.0308
2023-04-15T11:20:10.913Z,2.0462
2023-04-15T11:21:12.035Z,2.0462
2023-04-15T11:22:12.949Z,2.0308
2023-04-15T11:23:15.015Z,2.3538
2023-04-15T11:24:15.104Z,2.4154
2023-04-15T11:25:16.075Z,2.3000
2023-04-15T11:26:17.187Z,2.3692
2023-04-15T11:27:18.183Z,2.3769
2023-04-15T11:28:19.181Z,2.3692
2023-04-15T11:29:20.239Z,2.3462
2023-04-15T11:30:21.302Z,2.6615
2023-04-15T11:31:22.461Z,2.5077
2023-04-15T11:32:23.415Z,2.3231
2023-04-15T11:33:24.447Z,2.3538
2023-04-15T11:34:25.449Z,2.3923
2023-04-15T11:35:26.533Z,2.6615
2023-04-15T11:36:27.614Z,2.4846
2023-04-15T11:37:28.592Z,2.4462
2023-04-15T11:38:29.640Z,2.2923
2023-04-15T11:39:30.686Z,2.3846
2023-04-15T11:40:31.761Z,2.5538
2023-04-15T11:41:32.830Z,2.2615
2023-04-15T11:42:48.571Z,2.5462
2023-04-15T11:43:34.853Z,2.3692
2023-04-15T11:44:35.887Z,2.3154
2023-04-15T11:45:37.039Z,2.4077
2023-04-15T11:46:37.882Z,2.2538
2023-04-15T11:47:38.926Z,2.2846
2023-04-15T11:48:39.937Z,2.2615
2023-04-15T11:49:40.982Z,2.1231
2023-04-15T11:50:42.022Z,2.1154
2023-04-15T11:51:43.103Z,2.2846
2023-04-15T11:52:44.102Z,2.4538
2023-04-15T11:53:45.123Z,2.2615
2023-04-15T11:54:46.193Z,2.5538
2023-04-15T11:55:47.220Z,2.3308
2023-04-15T11:56:48.282Z,2.1231
2023-04-15T11:57:49.309Z,2.1308
2023-04-15T11:58:50.329Z,2.1615
2023-04-15T11:59:51.373Z,2.3077
2023-04-15T12:00:52.424Z,2.3462
2023-04-15T12:01:53.483Z,2.2846
2023-04-15T12:02:54.756Z,2.3308
2023-04-15T12:03:55.577Z,2.1846
2023-04-15T12:04:56.624Z,2.2000
2023-04-15T12:05:57.573Z,2.1769
2023-04-15T12:06:58.617Z,2.0462
2023-04-15T12:07:59.650Z,2.2231
2023-04-15T12:09:00.710Z,2.2308
2023-04-15T12:10:01.700Z,1.9308
2023-04-15T12:11:02.746Z,1.9923
2023-04-15T12:12:03.877Z,1.9000
2023-04-15T12:13:04.846Z,2.1385
2023-04-15T12:14:06.163Z,2.1308
2023-04-15T12:15:06.905Z,2.0154
2023-04-15T12:16:07.974Z,1.8615
2023-04-15T12:17:09.034Z,1.9769
2023-04-15T12:18:10.070Z,1.8692
2023-04-15T12:19:11.026Z,1.9000
2023-04-15T12:20:12.109Z,1.9692
2023-04-15T12:21:13.212Z,1.7923
2023-04-15T12:22:14.305Z,1.9923
2023-04-15T12:23:15.324Z,1.8231
2023-04-15T12:24:16.408Z,2.0077
2023-04-15T12:25:17.360Z,2.0308
2023-04-15T12:26:18.406Z,2.0538
2023-04-15T12:27:19.439Z,2.0077
2023-04-15T12:28:20.422Z,1.8538
2023-04-15T12:29:21.444Z,1.8077
2023-04-15T12:30:22.463Z,1.9385
2023-04-15T12:31:23.524Z,1.8231